sensor_id;sensor_type;location;lat;lon;timestamp;P1;durP1;ratioP1;P2;durP2;ratioP2
16403;SDS011;8311;50.158;8.642;2023-08-07T00:02:04;4.10;;;1.15;;
16403;SDS011;8311;50.158;8.642;2023-08-07T00:04:58;2.42;;;0.90;;
16403;SDS011;8311;50.158;8.642;2023-08-07T00:07:51;2.35;;;0.82;;
16403;SDS011;8311;50.158;8.642;2023-08-07T00:10:44;1.27;;;0.77;;
16403;SDS011;8311;50.158;8.642;2023-08-07T00:13:37;3.90;;;0.77;;
16403;SDS011;8311;50.158;8.642;2023-08-07T00:16:31;3.50;;;0.80;;
16403;SDS011;8311;50.158;8.642;2023-08-07T00:19:24;1.38;;;0.70;;
16403;SDS011;8311;50.158;8.642;2023-08-07T00:22:17;2.53;;;0.77;;
16403;SDS011;8311;50.158;8.642;2023-08-07T00:25:11;2.05;;;0.82;;
16403;SDS011;8311;50.158;8.642;2023-08-07T00:28:04;1.20;;;0.60;;
16403;SDS011;8311;50.158;8.642;2023-08-07T00:30:58;1.38;;;0.60;;
16403;SDS011;8311;50.158;8.642;2023-08-07T00:33:52;1.40;;;0.80;;
16403;SDS011;8311;50.158;8.642;2023-08-07T00:36:47;2.40;;;0.80;;
16403;SDS011;8311;50.158;8.642;2023-08-07T00:39:41;1.00;;;0.60;;
16403;SDS011;8311;50.158;8.642;2023-08-07T00:42:34;1.88;;;0.88;;
16403;SDS011;8311;50.158;8.642;2023-08-07T00:45:28;2.38;;;0.70;;
16403;SDS011;8311;50.158;8.642;2023-08-07T00:48:21;1.60;;;0.50;;
16403;SDS011;8311;50.158;8.642;2023-08-07T00:51:16;3.05;;;0.80;;
16403;SDS011;8311;50.158;8.642;2023-08-07T00:54:09;1.42;;;0.70;;
16403;SDS011;8311;50.158;8.642;2023-08-07T00:57:07;4.35;;;1.15;;
16403;SDS011;8311;50.158;8.642;2023-08-07T01:00:03;2.22;;;1.23;;
16403;SDS011;8311;50.158;8.642;2023-08-07T01:02:59;1.85;;;1.00;;
16403;SDS011;8311;50.158;8.642;2023-08-07T01:05:53;1.15;;;0.75;;
16403;SDS011;8311;50.158;8.642;2023-08-07T01:08:47;2.67;;;0.90;;
16403;SDS011;8311;50.158;8.642;2023-08-07T01:11:43;2.40;;;0.70;;
16403;SDS011;8311;50.158;8.642;2023-08-07T01:14:42;1.42;;;0.80;;
16403;SDS011;8311;50.158;8.642;2023-08-07T01:17:42;1.60;;;0.75;;
16403;SDS011;8311;50.158;8.642;2023-08-07T01:20:36;3.53;;;1.20;;
16403;SDS011;8311;50.158;8.642;2023-08-07T01:23:31;2.92;;;0.98;;
16403;SDS011;8311;50.158;8.642;2023-08-07T01:26:25;3.42;;;1.23;;
16403;SDS011;8311;50.158;8.642;2023-08-07T01:29:21;2.72;;;0.80;;
16403;SDS011;8311;50.158;8.642;2023-08-07T01:32:24;2.80;;;0.95;;
16403;SDS011;8311;50.158;8.642;2023-08-07T01:35:22;2.50;;;1.13;;
16403;SDS011;8311;50.158;8.642;2023-08-07T01:38:17;4.03;;;1.08;;
16403;SDS011;8311;50.158;8.642;2023-08-07T01:41:13;1.58;;;0.73;;
16403;SDS011;8311;50.158;8.642;2023-08-07T01:44:06;1.10;;;0.80;;
16403;SDS011;8311;50.158;8.642;2023-08-07T01:46:59;3.63;;;1.35;;
16403;SDS011;8311;50.158;8.642;2023-08-07T01:49:52;2.55;;;1.00;;
16403;SDS011;8311;50.158;8.642;2023-08-07T01:52:45;3.88;;;1.10;;
16403;SDS011;8311;50.158;8.642;2023-08-07T01:55:39;2.03;;;0.85;;
16403;SDS011;8311;50.158;8.642;2023-08-07T01:58:34;2.75;;;1.10;;
16403;SDS011;8311;50.158;8.642;2023-08-07T02:01:28;1.48;;;0.88;;
16403;SDS011;8311;50.158;8.642;2023-08-07T02:04:21;1.30;;;0.85;;
16403;SDS011;8311;50.158;8.642;2023-08-07T02:07:14;2.20;;;1.20;;
16403;SDS011;8311;50.158;8.642;2023-08-07T02:10:07;2.35;;;0.90;;
16403;SDS011;8311;50.158;8.642;2023-08-07T02:13:01;2.83;;;0.90;;
16403;SDS011;8311;50.158;8.642;2023-08-07T02:15:55;4.07;;;1.13;;
16403;SDS011;8311;50.158;8.642;2023-08-07T02:18:48;2.17;;;1.10;;
16403;SDS011;8311;50.158;8.642;2023-08-07T02:21:41;4.45;;;1.30;;
16403;SDS011;8311;50.158;8.642;2023-08-07T02:24:34;1.88;;;0.70;;
16403;SDS011;8311;50.158;8.642;2023-08-07T02:27:27;1.15;;;0.68;;
16403;SDS011;8311;50.158;8.642;2023-08-07T02:30:21;2.88;;;1.00;;
16403;SDS011;8311;50.158;8.642;2023-08-07T02:33:16;3.17;;;1.17;;
16403;SDS011;8311;50.158;8.642;2023-08-07T02:36:08;3.55;;;1.08;;
16403;SDS011;8311;50.158;8.642;2023-08-07T02:39:02;2.15;;;1.00;;
16403;SDS011;8311;50.158;8.642;2023-08-07T02:41:56;2.40;;;1.15;;
16403;SDS011;8311;50.158;8.642;2023-08-07T02:44:49;3.30;;;1.13;;
16403;SDS011;8311;50.158;8.642;2023-08-07T02:47:42;4.07;;;1.05;;
16403;SDS011;8311;50.158;8.642;2023-08-07T02:50:37;1.80;;;0.88;;
16403;SDS011;8311;50.158;8.642;2023-08-07T02:53:30;4.72;;;1.20;;
16403;SDS011;8311;50.158;8.642;2023-08-07T02:56:23;1.17;;;0.90;;
16403;SDS011;8311;50.158;8.642;2023-08-07T02:59:16;2.17;;;0.90;;
16403;SDS011;8311;50.158;8.642;2023-08-07T03:02:10;2.63;;;1.02;;
16403;SDS011;8311;50.158;8.642;2023-08-07T03:05:03;2.38;;;1.00;;
16403;SDS011;8311;50.158;8.642;2023-08-07T03:07:59;1.85;;;0.82;;
16403;SDS011;8311;50.158;8.642;2023-08-07T03:10:53;2.00;;;1.15;;
16403;SDS011;8311;50.158;8.642;2023-08-07T03:13:47;2.03;;;1.00;;
16403;SDS011;8311;50.158;8.642;2023-08-07T03:16:41;3.38;;;1.10;;
16403;SDS011;8311;50.158;8.642;2023-08-07T03:19:34;1.83;;;0.90;;
16403;SDS011;8311;50.158;8.642;2023-08-07T03:22:27;2.78;;;1.00;;
16403;SDS011;8311;50.158;8.642;2023-08-07T03:25:22;1.65;;;0.95;;
16403;SDS011;8311;50.158;8.642;2023-08-07T03:28:15;2.90;;;1.00;;
16403;SDS011;8311;50.158;8.642;2023-08-07T03:31:08;2.97;;;0.75;;
16403;SDS011;8311;50.158;8.642;2023-08-07T03:34:01;1.88;;;1.10;;
16403;SDS011;8311;50.158;8.642;2023-08-07T03:36:54;2.13;;;0.93;;
16403;SDS011;8311;50.158;8.642;2023-08-07T03:39:49;2.25;;;0.90;;
16403;SDS011;8311;50.158;8.642;2023-08-07T03:42:44;2.70;;;0.95;;
16403;SDS011;8311;50.158;8.642;2023-08-07T03:45:38;3.15;;;1.20;;
16403;SDS011;8311;50.158;8.642;2023-08-07T03:48:31;3.42;;;1.27;;
16403;SDS011;8311;50.158;8.642;2023-08-07T03:51:24;3.35;;;1.08;;
16403;SDS011;8311;50.158;8.642;2023-08-07T03:54:17;1.70;;;0.90;;
16403;SDS011;8311;50.158;8.642;2023-08-07T03:57:10;3.40;;;1.38;;
16403;SDS011;8311;50.158;8.642;2023-08-07T04:00:05;2.33;;;1.00;;
16403;SDS011;8311;50.158;8.642;2023-08-07T04:03:00;3.05;;;1.10;;
16403;SDS011;8311;50.158;8.642;2023-08-07T04:05:55;2.22;;;1.00;;
16403;SDS011;8311;50.158;8.642;2023-08-07T04:08:48;2.13;;;0.90;;
16403;SDS011;8311;50.158;8.642;2023-08-07T04:11:41;2.63;;;1.02;;
16403;SDS011;8311;50.158;8.642;2023-08-07T04:14:34;1.80;;;0.90;;
16403;SDS011;8311;50.158;8.642;2023-08-07T04:17:29;3.88;;;1.20;;
16403;SDS011;8311;50.158;8.642;2023-08-07T04:20:22;1.77;;;0.73;;
16403;SDS011;8311;50.158;8.642;2023-08-07T04:23:15;3.17;;;1.25;;
16403;SDS011;8311;50.158;8.642;2023-08-07T04:26:08;3.78;;;1.23;;
16403;SDS011;8311;50.158;8.642;2023-08-07T04:29:01;1.73;;;0.93;;
16403;SDS011;8311;50.158;8.642;2023-08-07T04:31:55;2.75;;;1.27;;
16403;SDS011;8311;50.158;8.642;2023-08-07T04:34:50;3.28;;;1.20;;
16403;SDS011;8311;50.158;8.642;2023-08-07T04:37:44;2.13;;;0.98;;
16403;SDS011;8311;50.158;8.642;2023-08-07T04:40:37;2.63;;;1.25;;
16403;SDS011;8311;50.158;8.642;2023-08-07T04:43:36;3.85;;;1.40;;
16403;SDS011;8311;50.158;8.642;2023-08-07T04:46:28;4.32;;;1.20;;
16403;SDS011;8311;50.158;8.642;2023-08-07T04:49:22;2.20;;;1.10;;
16403;SDS011;8311;50.158;8.642;2023-08-07T04:52:15;1.63;;;0.95;;
16403;SDS011;8311;50.158;8.642;2023-08-07T04:55:16;2.88;;;1.10;;
16403;SDS011;8311;50.158;8.642;2023-08-07T04:58:09;3.03;;;1.17;;
16403;SDS011;8311;50.158;8.642;2023-08-07T05:01:02;2.13;;;1.00;;
16403;SDS011;8311;50.158;8.642;2023-08-07T05:03:55;4.22;;;1.45;;
16403;SDS011;8311;50.158;8.642;2023-08-07T05:06:50;3.25;;;1.40;;
16403;SDS011;8311;50.158;8.642;2023-08-07T05:09:45;2.83;;;1.20;;
16403;SDS011;8311;50.158;8.642;2023-08-07T05:12:38;2.75;;;1.27;;
16403;SDS011;8311;50.158;8.642;2023-08-07T05:15:31;2.55;;;0.95;;
16403;SDS011;8311;50.158;8.642;2023-08-07T05:18:25;2.53;;;1.00;;
16403;SDS011;8311;50.158;8.642;2023-08-07T05:21:17;1.98;;;1.15;;
16403;SDS011;8311;50.158;8.642;2023-08-07T05:24:10;2.88;;;1.27;;
16403;SDS011;8311;50.158;8.642;2023-08-07T05:27:05;3.42;;;1.42;;
16403;SDS011;8311;50.158;8.642;2023-08-07T05:30:00;3.03;;;1.48;;
16403;SDS011;8311;50.158;8.642;2023-08-07T05:32:52;3.33;;;1.23;;
16403;SDS011;8311;50.158;8.642;2023-08-07T05:35:45;1.55;;;1.10;;
16403;SDS011;8311;50.158;8.642;2023-08-07T05:38:39;5.30;;;1.58;;
16403;SDS011;8311;50.158;8.642;2023-08-07T05:41:34;2.67;;;1.20;;
16403;SDS011;8311;50.158;8.642;2023-08-07T05:44:31;3.03;;;1.35;;
16403;SDS011;8311;50.158;8.642;2023-08-07T05:47:24;2.58;;;1.13;;
16403;SDS011;8311;50.158;8.642;2023-08-07T05:50:18;2.47;;;1.23;;
16403;SDS011;8311;50.158;8.642;2023-08-07T05:53:10;1.75;;;1.15;;
16403;SDS011;8311;50.158;8.642;2023-08-07T05:56:04;3.13;;;1.15;;
16403;SDS011;8311;50.158;8.642;2023-08-07T05:58:56;2.22;;;1.20;;
16403;SDS011;8311;50.158;8.642;2023-08-07T06:01:51;3.30;;;1.30;;
16403;SDS011;8311;50.158;8.642;2023-08-07T06:04:49;1.60;;;1.20;;
16403;SDS011;8311;50.158;8.642;2023-08-07T06:07:44;2.78;;;1.25;;
16403;SDS011;8311;50.158;8.642;2023-08-07T06:10:38;2.80;;;1.25;;
16403;SDS011;8311;50.158;8.642;2023-08-07T06:13:32;1.73;;;1.17;;
16403;SDS011;8311;50.158;8.642;2023-08-07T06:16:26;3.80;;;1.48;;
16403;SDS011;8311;50.158;8.642;2023-08-07T06:19:21;2.55;;;1.40;;
16403;SDS011;8311;50.158;8.642;2023-08-07T06:22:23;2.40;;;1.42;;
16403;SDS011;8311;50.158;8.642;2023-08-07T06:25:17;5.65;;;1.52;;
16403;SDS011;8311;50.158;8.642;2023-08-07T06:28:10;2.95;;;1.30;;
16403;SDS011;8311;50.158;8.642;2023-08-07T06:31:05;1.90;;;1.10;;
16403;SDS011;8311;50.158;8.642;2023-08-07T06:34:00;2.97;;;1.30;;
16403;SDS011;8311;50.158;8.642;2023-08-07T06:36:55;2.30;;;1.17;;
16403;SDS011;8311;50.158;8.642;2023-08-07T06:39:49;2.33;;;1.30;;
16403;SDS011;8311;50.158;8.642;2023-08-07T06:42:43;4.53;;;1.30;;
16403;SDS011;8311;50.158;8.642;2023-08-07T06:45:36;2.33;;;1.30;;
16403;SDS011;8311;50.158;8.642;2023-08-07T06:48:29;3.30;;;1.13;;
16403;SDS011;8311;50.158;8.642;2023-08-07T06:51:23;2.05;;;1.10;;
16403;SDS011;8311;50.158;8.642;2023-08-07T06:54:17;3.40;;;1.30;;
16403;SDS011;8311;50.158;8.642;2023-08-07T06:57:11;2.47;;;1.30;;
16403;SDS011;8311;50.158;8.642;2023-08-07T07:00:04;3.65;;;1.48;;
16403;SDS011;8311;50.158;8.642;2023-08-07T07:02:59;4.47;;;1.60;;
16403;SDS011;8311;50.158;8.642;2023-08-07T07:05:52;3.53;;;1.20;;
16403;SDS011;8311;50.158;8.642;2023-08-07T07:08:46;3.63;;;1.20;;
16403;SDS011;8311;50.158;8.642;2023-08-07T07:11:41;5.53;;;1.38;;
16403;SDS011;8311;50.158;8.642;2023-08-07T07:14:35;4.30;;;2.10;;
16403;SDS011;8311;50.158;8.642;2023-08-07T07:17:27;3.45;;;1.70;;
16403;SDS011;8311;50.158;8.642;2023-08-07T07:20:21;4.38;;;1.33;;
16403;SDS011;8311;50.158;8.642;2023-08-07T07:23:14;4.22;;;1.35;;
16403;SDS011;8311;50.158;8.642;2023-08-07T07:26:07;3.85;;;1.35;;
16403;SDS011;8311;50.158;8.642;2023-08-07T07:29:02;5.15;;;1.48;;
16403;SDS011;8311;50.158;8.642;2023-08-07T07:31:56;3.45;;;1.10;;
16403;SDS011;8311;50.158;8.642;2023-08-07T07:34:50;5.05;;;1.70;;
16403;SDS011;8311;50.158;8.642;2023-08-07T07:37:44;3.85;;;1.40;;
16403;SDS011;8311;50.158;8.642;2023-08-07T07:40:38;5.78;;;1.75;;
16403;SDS011;8311;50.158;8.642;2023-08-07T07:43:30;3.85;;;1.80;;
16403;SDS011;8311;50.158;8.642;2023-08-07T07:46:25;4.05;;;1.52;;
16403;SDS011;8311;50.158;8.642;2023-08-07T07:49:19;3.45;;;1.50;;
16403;SDS011;8311;50.158;8.642;2023-08-07T07:52:11;8.05;;;1.85;;
16403;SDS011;8311;50.158;8.642;2023-08-07T07:55:05;5.68;;;1.77;;
16403;SDS011;8311;50.158;8.642;2023-08-07T07:58:01;3.17;;;1.58;;
16403;SDS011;8311;50.158;8.642;2023-08-07T08:00:54;4.72;;;1.55;;
16403;SDS011;8311;50.158;8.642;2023-08-07T08:03:49;4.75;;;1.70;;
16403;SDS011;8311;50.158;8.642;2023-08-07T08:06:42;6.70;;;1.48;;
16403;SDS011;8311;50.158;8.642;2023-08-07T08:09:36;3.85;;;1.50;;
16403;SDS011;8311;50.158;8.642;2023-08-07T08:12:30;4.85;;;1.83;;
16403;SDS011;8311;50.158;8.642;2023-08-07T08:15:23;10.57;;;2.47;;
16403;SDS011;8311;50.158;8.642;2023-08-07T08:18:16;3.00;;;1.60;;
16403;SDS011;8311;50.158;8.642;2023-08-07T08:21:11;4.15;;;1.75;;
16403;SDS011;8311;50.158;8.642;2023-08-07T08:24:05;4.45;;;1.92;;
16403;SDS011;8311;50.158;8.642;2023-08-07T08:26:58;5.30;;;2.05;;
16403;SDS011;8311;50.158;8.642;2023-08-07T08:29:52;4.40;;;1.85;;
16403;SDS011;8311;50.158;8.642;2023-08-07T08:32:45;7.97;;;2.03;;
16403;SDS011;8311;50.158;8.642;2023-08-07T08:35:38;5.50;;;1.90;;
16403;SDS011;8311;50.158;8.642;2023-08-07T08:38:33;5.05;;;1.63;;
16403;SDS011;8311;50.158;8.642;2023-08-07T08:41:26;5.38;;;1.90;;
16403;SDS011;8311;50.158;8.642;2023-08-07T08:44:21;3.08;;;1.42;;
16403;SDS011;8311;50.158;8.642;2023-08-07T08:47:16;12.43;;;2.15;;
16403;SDS011;8311;50.158;8.642;2023-08-07T08:50:10;11.82;;;2.70;;
16403;SDS011;8311;50.158;8.642;2023-08-07T08:53:06;5.68;;;1.98;;
16403;SDS011;8311;50.158;8.642;2023-08-07T08:56:04;6.68;;;2.03;;
16403;SDS011;8311;50.158;8.642;2023-08-07T08:58:58;6.55;;;2.40;;
16403;SDS011;8311;50.158;8.642;2023-08-07T09:01:52;8.05;;;2.08;;
16403;SDS011;8311;50.158;8.642;2023-08-07T09:04:45;4.53;;;2.25;;
16403;SDS011;8311;50.158;8.642;2023-08-07T09:07:38;7.68;;;1.90;;
16403;SDS011;8311;50.158;8.642;2023-08-07T09:10:32;5.15;;;2.00;;
16403;SDS011;8311;50.158;8.642;2023-08-07T09:13:27;3.33;;;1.58;;
16403;SDS011;8311;50.158;8.642;2023-08-07T09:16:22;6.18;;;2.33;;
16403;SDS011;8311;50.158;8.642;2023-08-07T09:19:17;4.32;;;1.75;;
16403;SDS011;8311;50.158;8.642;2023-08-07T09:22:09;2.83;;;1.45;;
16403;SDS011;8311;50.158;8.642;2023-08-07T09:25:03;3.60;;;1.83;;
16403;SDS011;8311;50.158;8.642;2023-08-07T09:27:57;3.90;;;1.67;;
16403;SDS011;8311;50.158;8.642;2023-08-07T09:30:51;3.92;;;1.70;;
16403;SDS011;8311;50.158;8.642;2023-08-07T09:33:46;6.28;;;1.73;;
16403;SDS011;8311;50.158;8.642;2023-08-07T09:36:40;3.78;;;1.58;;
16403;SDS011;8311;50.158;8.642;2023-08-07T09:39:35;5.88;;;1.55;;
16403;SDS011;8311;50.158;8.642;2023-08-07T09:42:30;5.05;;;1.92;;
16403;SDS011;8311;50.158;8.642;2023-08-07T09:45:25;3.78;;;1.60;;
16403;SDS011;8311;50.158;8.642;2023-08-07T09:48:23;5.22;;;1.65;;
16403;SDS011;8311;50.158;8.642;2023-08-07T09:51:19;3.63;;;1.75;;
16403;SDS011;8311;50.158;8.642;2023-08-07T09:54:11;4.40;;;1.42;;
16403;SDS011;8311;50.158;8.642;2023-08-07T09:57:05;3.88;;;1.30;;
16403;SDS011;8311;50.158;8.642;2023-08-07T09:59:59;3.30;;;1.35;;
16403;SDS011;8311;50.158;8.642;2023-08-07T10:02:53;4.90;;;1.50;;
16403;SDS011;8311;50.158;8.642;2023-08-07T10:05:48;2.40;;;1.20;;
16403;SDS011;8311;50.158;8.642;2023-08-07T10:08:42;2.65;;;1.33;;
16403;SDS011;8311;50.158;8.642;2023-08-07T10:11:37;4.20;;;1.40;;
16403;SDS011;8311;50.158;8.642;2023-08-07T10:14:31;4.28;;;1.60;;
16403;SDS011;8311;50.158;8.642;2023-08-07T10:17:25;2.83;;;1.27;;
16403;SDS011;8311;50.158;8.642;2023-08-07T10:20:20;4.80;;;1.25;;
16403;SDS011;8311;50.158;8.642;2023-08-07T10:23:17;2.42;;;1.30;;
16403;SDS011;8311;50.158;8.642;2023-08-07T10:26:10;4.10;;;1.80;;
16403;SDS011;8311;50.158;8.642;2023-08-07T10:29:06;2.67;;;1.23;;
16403;SDS011;8311;50.158;8.642;2023-08-07T10:32:04;4.15;;;1.10;;
16403;SDS011;8311;50.158;8.642;2023-08-07T10:35:02;3.38;;;1.30;;
16403;SDS011;8311;50.158;8.642;2023-08-07T10:38:04;5.07;;;1.33;;
16403;SDS011;8311;50.158;8.642;2023-08-07T10:41:01;4.70;;;1.45;;
16403;SDS011;8311;50.158;8.642;2023-08-07T10:43:58;7.97;;;2.00;;
16403;SDS011;8311;50.158;8.642;2023-08-07T10:46:51;8.90;;;2.20;;
16403;SDS011;8311;50.158;8.642;2023-08-07T10:49:47;5.85;;;1.70;;
16403;SDS011;8311;50.158;8.642;2023-08-07T10:52:40;10.15;;;2.50;;
16403;SDS011;8311;50.158;8.642;2023-08-07T10:55:42;8.77;;;2.25;;
16403;SDS011;8311;50.158;8.642;2023-08-07T10:58:39;8.65;;;2.40;;
16403;SDS011;8311;50.158;8.642;2023-08-07T11:01:39;5.95;;;1.88;;
16403;SDS011;8311;50.158;8.642;2023-08-07T11:04:34;8.18;;;2.65;;
16403;SDS011;8311;50.158;8.642;2023-08-07T11:07:29;8.15;;;2.30;;
16403;SDS011;8311;50.158;8.642;2023-08-07T11:10:23;10.80;;;2.33;;
16403;SDS011;8311;50.158;8.642;2023-08-07T11:13:17;10.40;;;2.40;;
16403;SDS011;8311;50.158;8.642;2023-08-07T11:16:12;5.60;;;1.90;;
16403;SDS011;8311;50.158;8.642;2023-08-07T11:19:06;8.40;;;2.10;;
16403;SDS011;8311;50.158;8.642;2023-08-07T11:21:59;8.25;;;2.20;;
16403;SDS011;8311;50.158;8.642;2023-08-07T11:24:54;6.57;;;1.88;;
16403;SDS011;8311;50.158;8.642;2023-08-07T11:27:47;10.32;;;2.38;;
16403;SDS011;8311;50.158;8.642;2023-08-07T11:30:41;8.45;;;2.33;;
16403;SDS011;8311;50.158;8.642;2023-08-07T11:33:35;10.98;;;2.15;;
16403;SDS011;8311;50.158;8.642;2023-08-07T11:36:29;7.20;;;2.22;;
16403;SDS011;8311;50.158;8.642;2023-08-07T11:39:23;11.80;;;2.70;;
16403;SDS011;8311;50.158;8.642;2023-08-07T11:42:17;8.45;;;3.00;;
16403;SDS011;8311;50.158;8.642;2023-08-07T11:45:14;8.50;;;2.38;;
16403;SDS011;8311;50.158;8.642;2023-08-07T11:48:09;8.35;;;2.13;;
16403;SDS011;8311;50.158;8.642;2023-08-07T11:51:04;9.85;;;2.40;;
16403;SDS011;8311;50.158;8.642;2023-08-07T11:53:59;7.25;;;2.15;;
16403;SDS011;8311;50.158;8.642;2023-08-07T11:56:52;6.85;;;2.15;;
16403;SDS011;8311;50.158;8.642;2023-08-07T11:59:52;4.70;;;1.90;;
16403;SDS011;8311;50.158;8.642;2023-08-07T12:02:45;8.63;;;2.17;;
16403;SDS011;8311;50.158;8.642;2023-08-07T12:05:38;8.13;;;1.92;;
16403;SDS011;8311;50.158;8.642;2023-08-07T12:08:34;3.70;;;1.80;;
16403;SDS011;8311;50.158;8.642;2023-08-07T12:11:28;5.65;;;1.73;;
16403;SDS011;8311;50.158;8.642;2023-08-07T12:14:23;5.93;;;2.15;;
16403;SDS011;8311;50.158;8.642;2023-08-07T12:17:22;7.78;;;2.33;;
16403;SDS011;8311;50.158;8.642;2023-08-07T12:20:16;7.22;;;2.33;;
16403;SDS011;8311;50.158;8.642;2023-08-07T12:23:11;7.57;;;2.00;;
16403;SDS011;8311;50.158;8.642;2023-08-07T12:26:09;15.48;;;2.78;;
16403;SDS011;8311;50.158;8.642;2023-08-07T12:29:03;8.82;;;2.78;;
16403;SDS011;8311;50.158;8.642;2023-08-07T12:31:57;8.68;;;1.98;;
16403;SDS011;8311;50.158;8.642;2023-08-07T12:34:52;10.85;;;2.60;;
16403;SDS011;8311;50.158;8.642;2023-08-07T12:37:48;10.13;;;2.55;;
16403;SDS011;8311;50.158;8.642;2023-08-07T12:40:41;8.10;;;2.20;;
16403;SDS011;8311;50.158;8.642;2023-08-07T12:43:36;8.38;;;2.38;;
16403;SDS011;8311;50.158;8.642;2023-08-07T12:46:29;10.52;;;2.28;;
16403;SDS011;8311;50.158;8.642;2023-08-07T12:49:23;5.50;;;2.28;;
16403;SDS011;8311;50.158;8.642;2023-08-07T12:52:17;6.90;;;2.03;;
16403;SDS011;8311;50.158;8.642;2023-08-07T12:55:10;5.78;;;2.22;;
16403;SDS011;8311;50.158;8.642;2023-08-07T12:58:04;7.20;;;2.53;;
16403;SDS011;8311;50.158;8.642;2023-08-07T13:00:58;14.88;;;3.00;;
16403;SDS011;8311;50.158;8.642;2023-08-07T13:03:52;5.88;;;1.75;;
16403;SDS011;8311;50.158;8.642;2023-08-07T13:06:46;11.15;;;3.10;;
16403;SDS011;8311;50.158;8.642;2023-08-07T13:09:41;15.25;;;3.92;;
16403;SDS011;8311;50.158;8.642;2023-08-07T13:12:35;8.60;;;2.70;;
16403;SDS011;8311;50.158;8.642;2023-08-07T13:15:29;16.88;;;3.13;;
16403;SDS011;8311;50.158;8.642;2023-08-07T13:18:24;12.07;;;2.78;;
16403;SDS011;8311;50.158;8.642;2023-08-07T13:21:17;12.18;;;2.92;;
16403;SDS011;8311;50.158;8.642;2023-08-07T13:24:10;17.27;;;3.58;;
16403;SDS011;8311;50.158;8.642;2023-08-07T13:27:04;15.07;;;3.25;;
16403;SDS011;8311;50.158;8.642;2023-08-07T13:29:57;10.15;;;3.20;;
16403;SDS011;8311;50.158;8.642;2023-08-07T13:32:51;9.65;;;2.70;;
16403;SDS011;8311;50.158;8.642;2023-08-07T13:35:46;8.07;;;2.55;;
16403;SDS011;8311;50.158;8.642;2023-08-07T13:38:40;11.07;;;2.58;;
16403;SDS011;8311;50.158;8.642;2023-08-07T13:41:36;8.52;;;2.80;;
16403;SDS011;8311;50.158;8.642;2023-08-07T13:44:30;6.53;;;2.00;;
16403;SDS011;8311;50.158;8.642;2023-08-07T13:47:23;7.63;;;2.75;;
16403;SDS011;8311;50.158;8.642;2023-08-07T13:50:17;5.95;;;1.92;;
16403;SDS011;8311;50.158;8.642;2023-08-07T13:53:11;7.25;;;2.25;;
16403;SDS011;8311;50.158;8.642;2023-08-07T13:56:07;5.13;;;2.30;;
16403;SDS011;8311;50.158;8.642;2023-08-07T13:59:04;6.90;;;2.15;;
16403;SDS011;8311;50.158;8.642;2023-08-07T14:01:57;9.95;;;2.58;;
16403;SDS011;8311;50.158;8.642;2023-08-07T14:04:51;4.85;;;2.05;;
16403;SDS011;8311;50.158;8.642;2023-08-07T14:07:45;8.25;;;2.00;;
16403;SDS011;8311;50.158;8.642;2023-08-07T14:10:40;6.82;;;1.67;;
16403;SDS011;8311;50.158;8.642;2023-08-07T14:13:34;6.72;;;2.20;;
16403;SDS011;8311;50.158;8.642;2023-08-07T14:16:27;6.82;;;2.22;;
16403;SDS011;8311;50.158;8.642;2023-08-07T14:19:20;6.20;;;2.13;;
16403;SDS011;8311;50.158;8.642;2023-08-07T14:22:13;6.80;;;2.33;;
16403;SDS011;8311;50.158;8.642;2023-08-07T14:25:07;7.63;;;2.63;;
16403;SDS011;8311;50.158;8.642;2023-08-07T14:28:03;4.05;;;1.92;;
16403;SDS011;8311;50.158;8.642;2023-08-07T14:30:58;5.55;;;1.77;;
16403;SDS011;8311;50.158;8.642;2023-08-07T14:33:52;5.55;;;2.03;;
16403;SDS011;8311;50.158;8.642;2023-08-07T14:36:46;5.93;;;2.17;;
16403;SDS011;8311;50.158;8.642;2023-08-07T14:39:39;4.57;;;2.08;;
16403;SDS011;8311;50.158;8.642;2023-08-07T14:42:32;4.95;;;1.88;;
16403;SDS011;8311;50.158;8.642;2023-08-07T14:45:27;5.25;;;1.90;;
16403;SDS011;8311;50.158;8.642;2023-08-07T14:48:20;5.60;;;2.20;;
16403;SDS011;8311;50.158;8.642;2023-08-07T14:51:13;7.22;;;2.08;;
16403;SDS011;8311;50.158;8.642;2023-08-07T14:54:06;7.47;;;2.22;;
16403;SDS011;8311;50.158;8.642;2023-08-07T14:57:00;4.72;;;1.83;;
16403;SDS011;8311;50.158;8.642;2023-08-07T14:59:53;6.82;;;2.38;;
16403;SDS011;8311;50.158;8.642;2023-08-07T15:02:48;5.63;;;1.83;;
16403;SDS011;8311;50.158;8.642;2023-08-07T15:05:41;3.53;;;1.55;;
16403;SDS011;8311;50.158;8.642;2023-08-07T15:08:34;7.78;;;1.83;;
16403;SDS011;8311;50.158;8.642;2023-08-07T15:11:28;5.57;;;1.60;;
16403;SDS011;8311;50.158;8.642;2023-08-07T15:14:21;4.85;;;1.95;;
16403;SDS011;8311;50.158;8.642;2023-08-07T15:17:14;3.65;;;1.70;;
16403;SDS011;8311;50.158;8.642;2023-08-07T15:20:09;3.83;;;1.83;;
16403;SDS011;8311;50.158;8.642;2023-08-07T15:23:03;6.38;;;2.22;;
16403;SDS011;8311;50.158;8.642;2023-08-07T15:25:56;3.72;;;1.92;;
16403;SDS011;8311;50.158;8.642;2023-08-07T15:28:49;5.70;;;1.77;;
16403;SDS011;8311;50.158;8.642;2023-08-07T15:31:43;5.40;;;2.35;;
16403;SDS011;8311;50.158;8.642;2023-08-07T15:34:36;5.20;;;1.58;;
16403;SDS011;8311;50.158;8.642;2023-08-07T15:37:31;5.13;;;2.00;;
16403;SDS011;8311;50.158;8.642;2023-08-07T15:40:25;7.18;;;2.17;;
16403;SDS011;8311;50.158;8.642;2023-08-07T15:43:19;5.20;;;1.95;;
16403;SDS011;8311;50.158;8.642;2023-08-07T15:46:12;6.80;;;1.80;;
16403;SDS011;8311;50.158;8.642;2023-08-07T15:49:06;5.88;;;2.35;;
16403;SDS011;8311;50.158;8.642;2023-08-07T15:51:59;3.42;;;1.75;;
16403;SDS011;8311;50.158;8.642;2023-08-07T15:54:54;3.72;;;1.90;;
16403;SDS011;8311;50.158;8.642;2023-08-07T15:57:48;7.45;;;2.25;;
16403;SDS011;8311;50.158;8.642;2023-08-07T16:00:41;7.32;;;2.80;;
16403;SDS011;8311;50.158;8.642;2023-08-07T16:03:35;8.07;;;2.28;;
16403;SDS011;8311;50.158;8.642;2023-08-07T16:06:29;8.60;;;2.83;;
16403;SDS011;8311;50.158;8.642;2023-08-07T16:09:22;6.82;;;2.20;;
16403;SDS011;8311;50.158;8.642;2023-08-07T16:12:16;6.38;;;2.03;;
16403;SDS011;8311;50.158;8.642;2023-08-07T16:15:10;3.88;;;2.00;;
16403;SDS011;8311;50.158;8.642;2023-08-07T16:18:03;5.55;;;2.20;;
16403;SDS011;8311;50.158;8.642;2023-08-07T16:20:57;7.03;;;2.08;;
16403;SDS011;8311;50.158;8.642;2023-08-07T16:23:50;4.20;;;2.22;;
16403;SDS011;8311;50.158;8.642;2023-08-07T16:26:43;5.75;;;2.33;;
16403;SDS011;8311;50.158;8.642;2023-08-07T16:29:38;15.65;;;3.65;;
16403;SDS011;8311;50.158;8.642;2023-08-07T16:32:32;16.58;;;3.80;;
16403;SDS011;8311;50.158;8.642;2023-08-07T16:35:26;11.93;;;3.28;;
16403;SDS011;8311;50.158;8.642;2023-08-07T16:38:19;8.95;;;2.70;;
16403;SDS011;8311;50.158;8.642;2023-08-07T16:41:12;8.35;;;2.33;;
16403;SDS011;8311;50.158;8.642;2023-08-07T16:44:05;6.47;;;2.80;;
16403;SDS011;8311;50.158;8.642;2023-08-07T16:47:00;12.85;;;2.65;;
16403;SDS011;8311;50.158;8.642;2023-08-07T16:49:54;5.97;;;2.72;;
16403;SDS011;8311;50.158;8.642;2023-08-07T16:52:49;6.95;;;2.17;;
16403;SDS011;8311;50.158;8.642;2023-08-07T16:55:43;6.22;;;2.13;;
16403;SDS011;8311;50.158;8.642;2023-08-07T16:58:36;5.05;;;2.33;;
16403;SDS011;8311;50.158;8.642;2023-08-07T17:01:31;5.65;;;2.20;;
16403;SDS011;8311;50.158;8.642;2023-08-07T17:04:26;4.65;;;2.20;;
16403;SDS011;8311;50.158;8.642;2023-08-07T17:07:23;8.05;;;2.55;;
16403;SDS011;8311;50.158;8.642;2023-08-07T17:10:17;12.90;;;2.85;;
16403;SDS011;8311;50.158;8.642;2023-08-07T17:13:11;7.80;;;2.72;;
16403;SDS011;8311;50.158;8.642;2023-08-07T17:16:04;3.38;;;1.90;;
16403;SDS011;8311;50.158;8.642;2023-08-07T17:18:57;9.45;;;2.35;;
16403;SDS011;8311;50.158;8.642;2023-08-07T17:21:53;6.75;;;2.53;;
16403;SDS011;8311;50.158;8.642;2023-08-07T17:24:47;5.18;;;2.25;;
16403;SDS011;8311;50.158;8.642;2023-08-07T17:27:40;9.43;;;2.42;;
16403;SDS011;8311;50.158;8.642;2023-08-07T17:30:34;7.40;;;2.58;;
16403;SDS011;8311;50.158;8.642;2023-08-07T17:33:27;4.35;;;1.85;;
16403;SDS011;8311;50.158;8.642;2023-08-07T17:36:21;7.97;;;2.50;;
16403;SDS011;8311;50.158;8.642;2023-08-07T17:39:16;4.95;;;2.40;;
16403;SDS011;8311;50.158;8.642;2023-08-07T17:42:10;5.72;;;2.58;;
16403;SDS011;8311;50.158;8.642;2023-08-07T17:45:03;8.57;;;2.38;;